sensor_id;sensor_type;location;lat;lon;timestamp;pressure;altitude;pressure_sealevel;temperature;humidity
33422;BME280;19763;55.798;37.782;2023-01-16T00:00:47;146569.19;;;-3.08;80.95
33422;BME280;19763;55.798;37.782;2023-01-16T00:03:13;146609.78;;;-2.91;81.32
33422;BME280;19763;55.798;37.782;2023-01-16T00:05:38;146647.81;;;-2.76;81.34
33422;BME280;19763;55.798;37.782;2023-01-16T00:08:04;146657.97;;;-2.72;80.44
33422;BME280;19763;55.798;37.782;2023-01-16T00:10:30;146675.72;;;-2.65;80.01
33422;BME280;19763;55.798;37.782;2023-01-16T00:12:55;146689.69;;;-2.59;80.35
33422;BME280;19763;55.798;37.782;2023-01-16T00:15:21;146609.78;;;-2.91;79.33
33422;BME280;19763;55.798;37.782;2023-01-16T00:17:47;146689.69;;;-2.59;80.38
33422;BME280;19763;55.798;37.782;2023-01-16T00:20:15;146617.38;;;-2.88;80.15
33422;BME280;19763;55.798;37.782;2023-01-16T00:22:41;146633.88;;;-2.82;80.78
33422;BME280;19763;55.798;37.782;2023-01-16T00:25:07;146637.69;;;-2.80;80.67
33422;BME280;19763;55.798;37.782;2023-01-16T00:27:32;146655.44;;;-2.73;79.57
33422;BME280;19763;55.798;37.782;2023-01-16T00:29:58;146604.72;;;-2.93;80.54
33422;BME280;19763;55.798;37.782;2023-01-16T00:32:23;146651.63;;;-2.74;80.25
33422;BME280;19763;55.798;37.782;2023-01-16T00:34:49;146638.94;;;-2.80;80.52
33422;BME280;19763;55.798;37.782;2023-01-16T00:37:14;146664.34;;;-2.69;80.09
33422;BME280;19763;55.798;37.782;2023-01-16T00:39:40;146638.94;;;-2.80;80.31
33422;BME280;19763;55.798;37.782;2023-01-16T00:42:06;146602.19;;;-2.95;80.77
33422;BME280;19763;55.798;37.782;2023-01-16T00:44:32;146624.97;;;-2.85;81.21
33422;BME280;19763;55.798;37.782;2023-01-16T00:46:57;146593.28;;;-2.98;81.26
33422;BME280;19763;55.798;37.782;2023-01-16T00:49:23;146604.72;;;-2.93;81.85
33422;BME280;19763;55.798;37.782;2023-01-16T00:51:48;146599.63;;;-2.96;81.81
33422;BME280;19763;55.798;37.782;2023-01-16T00:54:14;146635.13;;;-2.81;81.70
33422;BME280;19763;55.798;37.782;2023-01-16T00:56:39;146666.84;;;-2.68;80.86
33422;BME280;19763;55.798;37.782;2023-01-16T00:59:05;146659.22;;;-2.71;81.33
33422;BME280;19763;55.798;37.782;2023-01-16T01:01:30;146613.56;;;-2.90;80.85
33422;BME280;19763;55.798;37.782;2023-01-16T01:03:58;146660.47;;;-2.71;81.33
33422;BME280;19763;55.798;37.782;2023-01-16T01:06:24;146640.22;;;-2.79;81.80
33422;BME280;19763;55.798;37.782;2023-01-16T01:08:49;146635.13;;;-2.81;81.63
33422;BME280;19763;55.798;37.782;2023-01-16T01:11:15;146655.44;;;-2.73;80.89
33422;BME280;19763;55.798;37.782;2023-01-16T01:13:41;146678.28;;;-2.64;81.54
33422;BME280;19763;55.798;37.782;2023-01-16T01:16:08;146665.56;;;-2.69;81.94
33422;BME280;19763;55.798;37.782;2023-01-16T01:18:34;146604.72;;;-2.93;82.36
33422;BME280;19763;55.798;37.782;2023-01-16T01:21:00;146613.56;;;-2.90;82.67
33422;BME280;19763;55.798;37.782;2023-01-16T01:23:26;146630.06;;;-2.83;82.22
33422;BME280;19763;55.798;37.782;2023-01-16T01:25:51;146617.38;;;-2.88;82.75
33422;BME280;19763;55.798;37.782;2023-01-16T01:28:18;146612.31;;;-2.90;82.50
33422;BME280;19763;55.798;37.782;2023-01-16T01:30:43;146628.78;;;-2.84;81.94
33422;BME280;19763;55.798;37.782;2023-01-16T01:33:09;146671.94;;;-2.66;82.93
33422;BME280;19763;55.798;37.782;2023-01-16T01:35:35;146607.22;;;-2.92;82.50
33422;BME280;19763;55.798;37.782;2023-01-16T01:38:01;146617.38;;;-2.88;82.95
33422;BME280;19763;55.798;37.782;2023-01-16T01:40:26;146645.28;;;-2.77;82.50
33422;BME280;19763;55.798;37.782;2023-01-16T01:42:52;146647.81;;;-2.76;82.32
33422;BME280;19763;55.798;37.782;2023-01-16T01:45:22;146666.84;;;-2.68;82.23
33422;BME280;19763;55.798;37.782;2023-01-16T01:47:55;146673.19;;;-2.66;82.07
33422;BME280;19763;55.798;37.782;2023-01-16T01:52:57;146651.63;;;-2.74;82.45
33422;BME280;19763;55.798;37.782;2023-01-16T01:55:25;146614.81;;;-2.89;82.72
33422;BME280;19763;55.798;37.782;2023-01-16T01:57:56;146581.88;;;-3.03;82.81
33422;BME280;19763;55.798;37.782;2023-01-16T02:00:24;146621.19;;;-2.87;83.56
33422;BME280;19763;55.798;37.782;2023-01-16T02:02:57;146657.97;;;-2.72;82.75
33422;BME280;19763;55.798;37.782;2023-01-16T02:05:48;146635.13;;;-2.81;83.44
33422;BME280;19763;55.798;37.782;2023-01-16T02:08:16;146638.94;;;-2.80;83.52
33422;BME280;19763;55.798;37.782;2023-01-16T02:10:52;146624.97;;;-2.85;82.68
33422;BME280;19763;55.798;37.782;2023-01-16T02:13:19;146645.28;;;-2.77;82.39
33422;BME280;19763;55.798;37.782;2023-01-16T02:15:44;146673.19;;;-2.66;83.32
33422;BME280;19763;55.798;37.782;2023-01-16T02:18:33;146702.34;;;-2.54;83.12
33422;BME280;19763;55.798;37.782;2023-01-16T02:26:57;146627.53;;;-2.84;83.24
33422;BME280;19763;55.798;37.782;2023-01-16T02:40:35;146679.53;;;-2.63;83.08
33422;BME280;19763;55.798;37.782;2023-01-16T02:43:14;146636.44;;;-2.81;82.28
33422;BME280;19763;55.798;37.782;2023-01-16T02:45:52;146627.53;;;-2.84;82.32
33422;BME280;19763;55.798;37.782;2023-01-16T02:51:30;146607.22;;;-2.92;83.29
33422;BME280;19763;55.798;37.782;2023-01-16T02:54:16;146603.41;;;-2.94;83.07
33422;BME280;19763;55.798;37.782;2023-01-16T02:56:50;146584.44;;;-3.02;82.92
33422;BME280;19763;55.798;37.782;2023-01-16T02:59:18;146599.63;;;-2.96;82.93
33422;BME280;19763;55.798;37.782;2023-01-16T03:01:48;146595.81;;;-2.97;83.37
33422;BME280;19763;55.798;37.782;2023-01-16T03:07:12;146602.19;;;-2.95;82.55
33422;BME280;19763;55.798;37.782;2023-01-16T03:09:46;146616.13;;;-2.89;82.91
33422;BME280;19763;55.798;37.782;2023-01-16T03:12:35;146616.13;;;-2.89;82.50
33422;BME280;19763;55.798;37.782;2023-01-16T03:28:52;146619.91;;;-2.87;82.81
33422;BME280;19763;55.798;37.782;2023-01-16T03:31:45;146619.91;;;-2.87;82.66
33422;BME280;19763;55.798;37.782;2023-01-16T03:34:18;146584.44;;;-3.02;82.44
33422;BME280;19763;55.798;37.782;2023-01-16T03:36:56;146538.78;;;-3.20;83.38
33422;BME280;19763;55.798;37.782;2023-01-16T03:39:29;146567.94;;;-3.08;82.57
33422;BME280;19763;55.798;37.782;2023-01-16T03:42:01;146546.38;;;-3.17;82.34
33422;BME280;19763;55.798;37.782;2023-01-16T03:44:33;146579.31;;;-3.04;82.27
33422;BME280;19763;55.798;37.782;2023-01-16T03:47:00;146586.94;;;-3.01;82.41
33422;BME280;19763;55.798;37.782;2023-01-16T03:49:32;146553.97;;;-3.14;82.31
33422;BME280;19763;55.798;37.782;2023-01-16T03:52:02;146551.44;;;-3.15;82.86
33422;BME280;19763;55.798;37.782;2023-01-16T03:54:42;146553.97;;;-3.14;82.89
33422;BME280;19763;55.798;37.782;2023-01-16T03:57:36;146546.38;;;-3.17;83.63
33422;BME280;19763;55.798;37.782;2023-01-16T04:00:04;146547.63;;;-3.17;82.91
33422;BME280;19763;55.798;37.782;2023-01-16T04:02:40;146562.88;;;-3.10;82.97
33422;BME280;19763;55.798;37.782;2023-01-16T04:10:27;146493.16;;;-3.39;82.69
33422;BME280;19763;55.798;37.782;2023-01-16T04:13:05;146532.44;;;-3.23;82.83
33422;BME280;19763;55.798;37.782;2023-01-16T04:15:34;146534.97;;;-3.22;83.29
33422;BME280;19763;55.798;37.782;2023-01-16T04:18:00;146603.41;;;-2.94;82.39
33422;BME280;19763;55.798;37.782;2023-01-16T04:20:27;146513.44;;;-3.31;83.51
33422;BME280;19763;55.798;37.782;2023-01-16T04:22:54;146586.94;;;-3.01;82.56
33422;BME280;19763;55.798;37.782;2023-01-16T04:25:20;146527.38;;;-3.25;83.27
33422;BME280;19763;55.798;37.782;2023-01-16T04:27:46;146566.69;;;-3.09;82.94
33422;BME280;19763;55.798;37.782;2023-01-16T04:30:11;146579.31;;;-3.04;82.51
33422;BME280;19763;55.798;37.782;2023-01-16T04:32:37;146599.63;;;-2.96;82.64
33422;BME280;19763;55.798;37.782;2023-01-16T04:35:04;146578.06;;;-3.04;82.74
33422;BME280;19763;55.798;37.782;2023-01-16T04:37:30;146518.50;;;-3.28;82.89
33422;BME280;19763;55.798;37.782;2023-01-16T04:39:56;146518.50;;;-3.28;83.94
33422;BME280;19763;55.798;37.782;2023-01-16T04:42:21;146513.44;;;-3.31;83.61
33422;BME280;19763;55.798;37.782;2023-01-16T04:44:47;146542.59;;;-3.19;82.85
33422;BME280;19763;55.798;37.782;2023-01-16T04:47:12;146542.59;;;-3.19;83.19
33422;BME280;19763;55.798;37.782;2023-01-16T04:49:38;146560.31;;;-3.12;83.40
33422;BME280;19763;55.798;37.782;2023-01-16T04:52:04;146599.63;;;-2.96;82.61
33422;BME280;19763;55.798;37.782;2023-01-16T04:54:29;146584.44;;;-3.02;82.08
33422;BME280;19763;55.798;37.782;2023-01-16T04:56:55;146578.06;;;-3.04;82.27
33422;BME280;19763;55.798;37.782;2023-01-16T04:59:20;146567.94;;;-3.08;82.29
33422;BME280;19763;55.798;37.782;2023-01-16T05:01:46;146571.72;;;-3.07;82.30
33422;BME280;19763;55.798;37.782;2023-01-16T05:04:13;146581.88;;;-3.03;82.08
33422;BME280;19763;55.798;37.782;2023-01-16T05:06:39;146526.09;;;-3.25;82.52
33422;BME280;19763;55.798;37.782;2023-01-16T05:09:05;146552.72;;;-3.15;82.04
33422;BME280;19763;55.798;37.782;2023-01-16T05:11:32;146542.59;;;-3.19;82.62
33422;BME280;19763;55.798;37.782;2023-01-16T05:13:58;146599.63;;;-2.96;82.52
33422;BME280;19763;55.798;37.782;2023-01-16T05:16:24;146550.19;;;-3.16;82.05
33422;BME280;19763;55.798;37.782;2023-01-16T05:18:50;146585.69;;;-3.01;82.28
33422;BME280;19763;55.798;37.782;2023-01-16T05:21:15;146578.06;;;-3.04;81.80
33422;BME280;19763;55.798;37.782;2023-01-16T05:23:41;146526.09;;;-3.25;81.91
33422;BME280;19763;55.798;37.782;2023-01-16T05:26:07;146515.94;;;-3.30;81.84
33422;BME280;19763;55.798;37.782;2023-01-16T05:28:34;146538.78;;;-3.20;81.97
33422;BME280;19763;55.798;37.782;2023-01-16T05:31:00;146508.34;;;-3.33;81.79
33422;BME280;19763;55.798;37.782;2023-01-16T05:33:26;146475.41;;;-3.46;82.48
33422;BME280;19763;55.798;37.782;2023-01-16T05:35:51;146523.53;;;-3.26;82.19
33422;BME280;19763;55.798;37.782;2023-01-16T05:38:19;146424.69;;;-3.67;82.84
33422;BME280;19763;55.798;37.782;2023-01-16T05:40:44;146466.50;;;-3.50;82.76
33422;BME280;19763;55.798;37.782;2023-01-16T05:43:10;146528.63;;;-3.24;82.60
33422;BME280;19763;55.798;37.782;2023-01-16T05:45:36;146513.44;;;-3.31;82.32
33422;BME280;19763;55.798;37.782;2023-01-16T05:48:02;146490.59;;;-3.40;82.44
33422;BME280;19763;55.798;37.782;2023-01-16T05:50:28;146486.81;;;-3.41;82.10
33422;BME280;19763;55.798;37.782;2023-01-16T05:52:54;146517.25;;;-3.29;81.99
33422;BME280;19763;55.798;37.782;2023-01-16T05:55:19;146498.19;;;-3.37;82.24
33422;BME280;19763;55.798;37.782;2023-01-16T05:57:45;146523.53;;;-3.26;82.20
33422;BME280;19763;55.798;37.782;2023-01-16T06:00:11;146498.19;;;-3.37;81.80
33422;BME280;19763;55.798;37.782;2023-01-16T06:02:37;146495.66;;;-3.38;81.77
33422;BME280;19763;55.798;37.782;2023-01-16T06:05:03;146496.94;;;-3.37;81.72
33422;BME280;19763;55.798;37.782;2023-01-16T06:07:29;146490.59;;;-3.40;81.46
33422;BME280;19763;55.798;37.782;2023-01-16T06:09:54;146491.84;;;-3.39;81.81
33422;BME280;19763;55.798;37.782;2023-01-16T06:12:20;146472.84;;;-3.47;81.99
33422;BME280;19763;55.798;37.782;2023-01-16T06:14:46;146460.16;;;-3.52;82.42
33422;BME280;19763;55.798;37.782;2023-01-16T06:17:12;146463.97;;;-3.51;82.31
33422;BME280;19763;55.798;37.782;2023-01-16T06:19:40;146486.81;;;-3.41;82.39
33422;BME280;19763;55.798;37.782;2023-01-16T06:22:06;146477.91;;;-3.45;82.13
33422;BME280;19763;55.798;37.782;2023-01-16T06:24:32;146480.44;;;-3.44;81.99
33422;BME280;19763;55.798;37.782;2023-01-16T06:26:57;146509.59;;;-3.32;81.72
33422;BME280;19763;55.798;37.782;2023-01-16T06:29:23;146484.25;;;-3.42;81.97
33422;BME280;19763;55.798;37.782;2023-01-16T06:31:49;146490.59;;;-3.40;81.72
33422;BME280;19763;55.798;37.782;2023-01-16T06:34:14;146453.88;;;-3.55;82.48
33422;BME280;19763;55.798;37.782;2023-01-16T06:36:40;146488.06;;;-3.41;82.08
33422;BME280;19763;55.798;37.782;2023-01-16T06:39:07;146453.88;;;-3.55;82.29
33422;BME280;19763;55.798;37.782;2023-01-16T06:41:33;146394.31;;;-3.79;83.05
33422;BME280;19763;55.798;37.782;2023-01-16T06:43:58;146419.63;;;-3.69;82.40
33422;BME280;19763;55.798;37.782;2023-01-16T06:46:24;146436.06;;;-3.62;82.72
33422;BME280;19763;55.798;37.782;2023-01-16T06:48:50;146463.97;;;-3.51;81.33
33422;BME280;19763;55.798;37.782;2023-01-16T06:51:15;146443.72;;;-3.59;82.35
33422;BME280;19763;55.798;37.782;2023-01-16T06:53:41;146502.00;;;-3.35;81.60
33422;BME280;19763;55.798;37.782;2023-01-16T06:56:07;146437.38;;;-3.61;81.46
33422;BME280;19763;55.798;37.782;2023-01-16T06:58:32;146463.97;;;-3.51;81.66
33422;BME280;19763;55.798;37.782;2023-01-16T07:00:58;146439.94;;;-3.60;81.20
33422;BME280;19763;55.798;37.782;2023-01-16T07:03:23;146467.81;;;-3.49;81.82
33422;BME280;19763;55.798;37.782;2023-01-16T07:05:50;146477.91;;;-3.45;81.19
33422;BME280;19763;55.798;37.782;2023-01-16T07:08:16;146469.06;;;-3.49;80.93
33422;BME280;19763;55.798;37.782;2023-01-16T07:10:42;146406.94;;;-3.74;81.53
33422;BME280;19763;55.798;37.782;2023-01-16T07:13:07;146418.34;;;-3.69;81.63
33422;BME280;19763;55.798;37.782;2023-01-16T07:15:36;146410.75;;;-3.72;81.78
33422;BME280;19763;55.798;37.782;2023-01-16T07:18:20;146441.19;;;-3.60;81.26
33422;BME280;19763;55.798;37.782;2023-01-16T07:21:08;146457.66;;;-3.53;81.91
33422;BME280;19763;55.798;37.782;2023-01-16T07:24:01;146460.16;;;-3.52;80.91
33422;BME280;19763;55.798;37.782;2023-01-16T07:26:27;146485.56;;;-3.42;81.61
33422;BME280;19763;55.798;37.782;2023-01-16T07:28:54;146438.63;;;-3.61;80.70
33422;BME280;19763;55.798;37.782;2023-01-16T07:31:21;146443.72;;;-3.59;81.30
33422;BME280;19763;55.798;37.782;2023-01-16T07:33:47;146477.91;;;-3.45;80.53
33422;BME280;19763;55.798;37.782;2023-01-16T07:36:13;146450.03;;;-3.56;80.31
33422;BME280;19763;55.798;37.782;2023-01-16T07:38:38;146493.16;;;-3.39;80.74
33422;BME280;19763;55.798;37.782;2023-01-16T07:41:04;146422.19;;;-3.68;80.83
33422;BME280;19763;55.798;37.782;2023-01-16T07:43:29;146455.13;;;-3.54;80.83
33422;BME280;19763;55.798;37.782;2023-01-16T07:45:55;146448.78;;;-3.57;80.38
33422;BME280;19763;55.798;37.782;2023-01-16T07:48:22;146474.09;;;-3.47;80.63
33422;BME280;19763;55.798;37.782;2023-01-16T07:50:52;146502.00;;;-3.35;80.90
33422;BME280;19763;55.798;37.782;2023-01-16T07:53:18;146465.25;;;-3.50;80.00
33422;BME280;19763;55.798;37.782;2023-01-16T07:55:51;146465.25;;;-3.50;80.70
33422;BME280;19763;55.798;37.782;2023-01-16T07:58:17;146432.28;;;-3.64;81.34
33422;BME280;19763;55.798;37.782;2023-01-16T08:00:43;146423.44;;;-3.67;80.35
33422;BME280;19763;55.798;37.782;2023-01-16T08:03:09;146427.22;;;-3.66;80.88
33422;BME280;19763;55.798;37.782;2023-01-16T08:05:35;146439.94;;;-3.60;81.35
33422;BME280;19763;55.798;37.782;2023-01-16T08:08:00;146493.16;;;-3.39;80.95
33422;BME280;19763;55.798;37.782;2023-01-16T08:10:26;146475.41;;;-3.46;80.55
33422;BME280;19763;55.798;37.782;2023-01-16T08:12:51;146432.28;;;-3.64;80.64
33422;BME280;19763;55.798;37.782;2023-01-16T08:15:17;146469.06;;;-3.49;80.95
33422;BME280;19763;55.798;37.782;2023-01-16T08:17:42;146442.44;;;-3.59;80.73
33422;BME280;19763;55.798;37.782;2023-01-16T08:20:09;146436.06;;;-3.62;80.50
33422;BME280;19763;55.798;37.782;2023-01-16T08:22:40;146422.19;;;-3.68;81.21
33422;BME280;19763;55.798;37.782;2023-01-16T08:25:06;146457.66;;;-3.53;80.71
33422;BME280;19763;55.798;37.782;2023-01-16T08:27:32;146490.59;;;-3.40;80.82
33422;BME280;19763;55.798;37.782;2023-01-16T08:29:57;146451.31;;;-3.56;80.23
33422;BME280;19763;55.798;37.782;2023-01-16T08:32:23;146457.66;;;-3.53;79.94
33422;BME280;19763;55.798;37.782;2023-01-16T08:34:48;146450.03;;;-3.56;80.50
33422;BME280;19763;55.798;37.782;2023-01-16T08:37:14;146479.19;;;-3.44;80.69
33422;BME280;19763;55.798;37.782;2023-01-16T08:39:40;146505.78;;;-3.34;80.63
33422;BME280;19763;55.798;37.782;2023-01-16T08:42:05;146518.50;;;-3.28;80.72
33422;BME280;19763;55.798;37.782;2023-01-16T08:44:50;146505.78;;;-3.34;81.36
33422;BME280;19763;55.798;37.782;2023-01-16T08:47:34;146513.44;;;-3.31;80.52
33422;BME280;19763;55.798;37.782;2023-01-16T08:50:21;146523.53;;;-3.26;80.65
33422;BME280;19763;55.798;37.782;2023-01-16T08:53:06;146480.44;;;-3.44;80.24
33422;BME280;19763;55.798;37.782;2023-01-16T08:55:32;146479.19;;;-3.44;80.12
33422;BME280;19763;55.798;37.782;2023-01-16T08:57:57;146495.66;;;-3.38;80.18
33422;BME280;19763;55.798;37.782;2023-01-16T09:00:27;146498.19;;;-3.37;79.45
33422;BME280;19763;55.798;37.782;2023-01-16T09:02:54;146505.78;;;-3.34;79.96
33422;BME280;19763;55.798;37.782;2023-01-16T09:05:22;146475.41;;;-3.46;80.70
33422;BME280;19763;55.798;37.782;2023-01-16T09:07:47;146483.00;;;-3.43;80.82
33422;BME280;19763;55.798;37.782;2023-01-16T09:10:13;146475.41;;;-3.46;80.37
33422;BME280;19763;55.798;37.782;2023-01-16T09:12:39;146465.25;;;-3.50;80.79
33422;BME280;19763;55.798;37.782;2023-01-16T09:15:24;146432.28;;;-3.64;80.48
33422;BME280;19763;55.798;37.782;2023-01-16T09:17:50;146441.19;;;-3.60;81.27
33422;BME280;19763;55.798;37.782;2023-01-16T09:20:16;146429.78;;;-3.65;81.43
33422;BME280;19763;55.798;37.782;2023-01-16T09:22:42;146447.53;;;-3.57;81.09
33422;BME280;19763;55.798;37.782;2023-01-16T09:25:08;146490.59;;;-3.40;79.96
33422;BME280;19763;55.798;37.782;2023-01-16T09:27:34;146472.84;;;-3.47;80.23
33422;BME280;19763;55.798;37.782;2023-01-16T09:29:59;146488.06;;;-3.41;80.35
33422;BME280;19763;55.798;37.782;2023-01-16T09:32:25;146519.75;;;-3.28;80.33
33422;BME280;19763;55.798;37.782;2023-01-16T09:34:51;146505.78;;;-3.34;80.22
33422;BME280;19763;55.798;37.782;2023-01-16T09:37:17;146471.59;;;-3.48;81.10
33422;BME280;19763;55.798;37.782;2023-01-16T09:39:42;146510.88;;;-3.32;80.94
33422;BME280;19763;55.798;37.782;2023-01-16T09:45:10;146496.94;;;-3.37;81.11
33422;BME280;19763;55.798;37.782;2023-01-16T09:47:38;146469.06;;;-3.49;80.49
33422;BME280;19763;55.798;37.782;2023-01-16T09:52:34;146505.78;;;-3.34;80.37
33422;BME280;19763;55.798;37.782;2023-01-16T09:55:45;146477.91;;;-3.45;80.94
33422;BME280;19763;55.798;37.782;2023-01-16T09:58:31;146504.53;;;-3.34;80.83
33422;BME280;19763;55.798;37.782;2023-01-16T10:03:31;146540.03;;;-3.20;80.49
33422;BME280;19763;55.798;37.782;2023-01-16T10:09:45;146548.94;;;-3.16;81.14
33422;BME280;19763;55.798;37.782;2023-01-16T10:11:43;146529.88;;;-3.24;80.66
33422;BME280;19763;55.798;37.782;2023-01-16T10:20:45;146559.09;;;-3.12;80.71
33422;BME280;19763;55.798;37.782;2023-01-16T10:26:01;146521.03;;;-3.27;80.94
33422;BME280;19763;55.798;37.782;2023-01-16T10:31:13;146526.09;;;-3.25;81.22
33422;BME280;19763;55.798;37.782;2023-01-16T10:33:50;146546.38;;;-3.17;80.33
33422;BME280;19763;55.798;37.782;2023-01-16T10:36:24;146552.72;;;-3.15;80.78
33422;BME280;19763;55.798;37.782;2023-01-16T10:38:55;146564.13;;;-3.10;80.86
33422;BME280;19763;55.798;37.782;2023-01-16T10:41:28;146574.28;;;-3.06;80.82
33422;BME280;19763;55.798;37.782;2023-01-16T10:44:32;146584.44;;;-3.02;80.02
33422;BME280;19763;55.798;37.782;2023-01-16T10:47:31;146592.03;;;-2.99;80.60
33422;BME280;19763;55.798;37.782;2023-01-16T10:50:17;146573.03;;;-3.06;81.15
33422;BME280;19763;55.798;37.782;2023-01-16T10:52:43;146551.44;;;-3.15;81.19
33422;BME280;19763;55.798;37.782;2023-01-16T10:55:11;146585.69;;;-3.01;81.08
33422;BME280;19763;55.798;37.782;2023-01-16T10:57:43;146607.22;;;-2.92;81.01
33422;BME280;19763;55.798;37.782;2023-01-16T11:00:19;146607.22;;;-2.92;80.98
33422;BME280;19763;55.798;37.782;2023-01-16T11:02:48;146632.56;;;-2.82;81.10
33422;BME280;19763;55.798;37.782;2023-01-16T11:05:26;146668.13;;;-2.68;80.99
33422;BME280;19763;55.798;37.782;2023-01-16T11:08:01;146661.78;;;-2.70;80.94
33422;BME280;19763;55.798;37.782;2023-01-16T11:10:29;146685.88;;;-2.61;81.48
33422;BME280;19763;55.798;37.782;2023-01-16T11:12:55;146621.19;;;-2.87;81.57
33422;BME280;19763;55.798;37.782;2023-01-16T11:15:39;146670.63;;;-2.67;82.04
33422;BME280;19763;55.798;37.782;2023-01-16T11:18:32;146675.72;;;-2.65;82.07
33422;BME280;19763;55.798;37.782;2023-01-16T11:21:14;146702.34;;;-2.54;81.48
33422;BME280;19763;55.798;37.782;2023-01-16T11:23:42;146694.75;;;-2.57;81.29
33422;BME280;19763;55.798;37.782;2023-01-16T11:26:09;146721.41;;;-2.46;80.78
33422;BME280;19763;55.798;37.782;2023-01-16T11:28:36;146678.28;;;-2.64;81.39
33422;BME280;19763;55.798;37.782;2023-01-16T11:31:21;146630.06;;;-2.83;81.60
33422;BME280;19763;55.798;37.782;2023-01-16T11:33:50;146599.63;;;-2.96;82.81
33422;BME280;19763;55.798;37.782;2023-01-16T11:36:21;146569.19;;;-3.08;82.62
33422;BME280;19763;55.798;37.782;2023-01-16T11:38:48;146557.78;;;-3.13;82.30
33422;BME280;19763;55.798;37.782;2023-01-16T11:41:20;146533.69;;;-3.22;81.53
33422;BME280;19763;55.798;37.782;2023-01-16T11:44:03;146515.94;;;-3.30;81.05
33422;BME280;19763;55.798;37.782;2023-01-16T11:46:48;146599.63;;;-2.96;80.85
33422;BME280;19763;55.798;37.782;2023-01-16T11:49:25;146619.91;;;-2.87;79.96
33422;BME280;19763;55.798;37.782;2023-01-16T11:51:52;146614.81;;;-2.89;79.27
33422;BME280;19763;55.798;37.782;2023-01-16T11:54:27;146604.72;;;-2.93;79.60
33422;BME280;19763;55.798;37.782;2023-01-16T12:03:02;146571.72;;;-3.07;79.08
33422;BME280;19763;55.798;37.782;2023-01-16T12:05:46;146627.53;;;-2.84;79.21
33422;BME280;19763;55.798;37.782;2023-01-16T12:17:06;146637.69;;;-2.80;79.06
33422;BME280;19763;55.798;37.782;2023-01-16T12:28:48;146608.53;;;-2.92;80.26
33422;BME280;19763;55.798;37.782;2023-01-16T12:39:08;146524.84;;;-3.26;81.17
33422;BME280;19763;55.798;37.782;2023-01-16T12:41:46;146542.59;;;-3.19;81.04
33422;BME280;19763;55.798;37.782;2023-01-16T12:45:07;146526.09;;;-3.25;81.84
33422;BME280;19763;55.798;37.782;2023-01-16T12:59:47;146493.16;;;-3.39;82.01
33422;BME280;19763;55.798;37.782;2023-01-16T13:02:39;146531.19;;;-3.23;81.25
33422;BME280;19763;55.798;37.782;2023-01-16T13:05:21;146537.47;;;-3.21;81.74
33422;BME280;19763;55.798;37.782;2023-01-16T13:07:56;146556.53;;;-3.13;81.06
33422;BME280;19763;55.798;37.782;2023-01-16T13:10:27;146529.88;;;-3.24;81.09
33422;BME280;19763;55.798;37.782;2023-01-16T13:13:25;146508.34;;;-3.33;82.19
33422;BME280;19763;55.798;37.782;2023-01-16T13:16:19;146538.78;;;-3.20;81.93
33422;BME280;19763;55.798;37.782;2023-01-16T13:18:53;146545.13;;;-3.18;81.02
33422;BME280;19763;55.798;37.782;2023-01-16T13:21:27;146529.88;;;-3.24;81.46
33422;BME280;19763;55.798;37.782;2023-01-16T13:24:21;146519.75;;;-3.28;82.19
33422;BME280;19763;55.798;37.782;2023-01-16T13:26:53;146514.69;;;-3.30;82.37
33422;BME280;19763;55.798;37.782;2023-01-16T13:29:28;146551.44;;;-3.15;82.20
33422;BME280;19763;55.798;37.782;2023-01-16T13:32:03;146524.84;;;-3.26;82.19
33422;BME280;19763;55.798;37.782;2023-01-16T13:34:35;146533.69;;;-3.22;82.09
33422;BME280;19763;55.798;37.782;2023-01-16T13:37:33;146526.09;;;-3.25;83.21
33422;BME280;19763;55.798;37.782;2023-01-16T13:42:46;146505.78;;;-3.34;83.44
33422;BME280;19763;55.798;37.782;2023-01-16T13:45:31;146500.75;;;-3.36;83.54
33422;BME280;19763;55.798;37.782;2023-01-16T13:48:17;146510.88;;;-3.32;83.29
33422;BME280;19763;55.798;37.782;2023-01-16T13:50:57;146479.19;;;-3.44;83.62
33422;BME280;19763;55.798;37.782;2023-01-16T13:53:29;146504.53;;;-3.34;84.14
33422;BME280;19763;55.798;37.782;2023-01-16T13:58:39;146509.59;;;-3.32;83.79
33422;BME280;19763;55.798;37.782;2023-01-16T14:01:06;146569.19;;;-3.08;84.26
33422;BME280;19763;55.798;37.782;2023-01-16T14:03:33;146533.69;;;-3.22;84.64
33422;BME280;19763;55.798;37.782;2023-01-16T14:08:47;146463.97;;;-3.51;85.68
33422;BME280;19763;55.798;37.782;2023-01-16T14:11:37;146496.94;;;-3.37;86.39
33422;BME280;19763;55.798;37.782;2023-01-16T14:24:12;146480.44;;;-3.44;87.62
33422;BME280;19763;55.798;37.782;2023-01-16T14:26:49;146483.00;;;-3.43;87.33
33422;BME280;19763;55.798;37.782;2023-01-16T14:29:22;146442.44;;;-3.59;87.61
33422;BME280;19763;55.798;37.782;2023-01-16T14:34:44;146463.97;;;-3.51;89.05
33422;BME280;19763;55.798;37.782;2023-01-16T14:37:45;146508.34;;;-3.33;88.14
33422;BME280;19763;55.798;37.782;2023-01-16T14:40:21;146446.22;;;-3.58;88.22
33422;BME280;19763;55.798;37.782;2023-01-16T14:42:50;146491.84;;;-3.39;88.70
33422;BME280;19763;55.798;37.782;2023-01-16T14:45:37;146500.75;;;-3.36;88.46
33422;BME280;19763;55.798;37.782;2023-01-16T14:54:02;146475.41;;;-3.46;87.46
33422;BME280;19763;55.798;37.782;2023-01-16T14:56:57;146451.31;;;-3.56;88.48
33422;BME280;19763;55.798;37.782;2023-01-16T14:59:35;146470.31;;;-3.48;88.98
33422;BME280;19763;55.798;37.782;2023-01-16T15:02:12;146439.94;;;-3.60;88.52
33422;BME280;19763;55.798;37.782;2023-01-16T15:05:08;146462.72;;;-3.51;89.06
33422;BME280;19763;55.798;37.782;2023-01-16T15:10:17;146526.09;;;-3.25;88.84
33422;BME280;19763;55.798;37.782;2023-01-16T15:12:44;146472.84;;;-3.47;88.59
33422;BME280;19763;55.798;37.782;2023-01-16T15:15:25;146485.56;;;-3.42;89.25
33422;BME280;19763;55.798;37.782;2023-01-16T15:17:54;146472.84;;;-3.47;89.68
33422;BME280;19763;55.798;37.782;2023-01-16T15:20:42;146503.28;;;-3.35;89.48